sensor_id;sensor_type;location;lat;lon;timestamp;pressure;altitude;pressure_sealevel;temperature;humidity
40994;BME280;26722;43.212;27.932;2023-06-26T00:00:11;54997.88;;;-146.72;100.00
40994;BME280;26722;43.212;27.932;2023-06-26T00:02:36;55014.75;;;-146.72;100.00
40994;BME280;26722;43.212;27.932;2023-06-26T00:05:01;55014.75;;;-146.72;100.00
40994;BME280;26722;43.212;27.932;2023-06-26T00:07:29;55010.53;;;-146.72;100.00
40994;BME280;26722;43.212;27.932;2023-06-26T00:09:55;55023.19;;;-146.72;100.00
40994;BME280;26722;43.212;27.932;2023-06-26T00:12:21;55029.53;;;-146.72;100.00
40994;BME280;26722;43.212;27.932;2023-06-26T00:14:46;55006.31;;;-146.72;100.00
40994;BME280;26722;43.212;27.932;2023-06-26T00:17:11;55023.19;;;-146.72;100.00
40994;BME280;26722;43.212;27.932;2023-06-26T00:19:36;55018.97;;;-146.72;100.00
40994;BME280;26722;43.212;27.932;2023-06-26T00:22:02;55027.41;;;-146.72;100.00
40994;BME280;26722;43.212;27.932;2023-06-26T00:24:27;55031.66;;;-146.72;100.00
40994;BME280;26722;43.212;27.932;2023-06-26T00:26:52;55014.75;;;-146.72;100.00
40994;BME280;26722;43.212;27.932;2023-06-26T00:29:17;55006.31;;;-146.72;100.00
40994;BME280;26722;43.212;27.932;2023-06-26T00:31:43;55023.19;;;-146.72;100.00
40994;BME280;26722;43.212;27.932;2023-06-26T00:34:08;55023.19;;;-146.72;100.00
40994;BME280;26722;43.212;27.932;2023-06-26T00:36:34;55016.88;;;-146.72;100.00
40994;BME280;26722;43.212;27.932;2023-06-26T00:38:59;55004.19;;;-146.72;100.00
40994;BME280;26722;43.212;27.932;2023-06-26T00:41:24;55037.97;;;-146.72;100.00
40994;BME280;26722;43.212;27.932;2023-06-26T00:43:50;55025.31;;;-146.72;100.00
40994;BME280;26722;43.212;27.932;2023-06-26T00:46:16;55023.19;;;-146.72;100.00
40994;BME280;26722;43.212;27.932;2023-06-26T00:48:42;55018.97;;;-146.72;100.00
40994;BME280;26722;43.212;27.932;2023-06-26T00:51:07;54995.75;;;-146.72;100.00
40994;BME280;26722;43.212;27.932;2023-06-26T00:53:33;55018.97;;;-146.72;100.00
40994;BME280;26722;43.212;27.932;2023-06-26T00:55:59;55031.66;;;-146.72;100.00
40994;BME280;26722;43.212;27.932;2023-06-26T00:58:25;55037.97;;;-146.72;100.00
40994;BME280;26722;43.212;27.932;2023-06-26T01:00:51;55010.53;;;-146.72;100.00
40994;BME280;26722;43.212;27.932;2023-06-26T01:03:16;55031.66;;;-146.72;100.00
40994;BME280;26722;43.212;27.932;2023-06-26T01:05:42;55012.63;;;-146.72;100.00
40994;BME280;26722;43.212;27.932;2023-06-26T01:08:10;55023.19;;;-146.72;100.00
40994;BME280;26722;43.212;27.932;2023-06-26T01:10:36;55012.63;;;-146.72;100.00
40994;BME280;26722;43.212;27.932;2023-06-26T01:13:01;55033.75;;;-146.72;100.00
40994;BME280;26722;43.212;27.932;2023-06-26T01:15:27;55014.75;;;-146.72;100.00
40994;BME280;26722;43.212;27.932;2023-06-26T01:17:52;55004.19;;;-146.72;100.00
40994;BME280;26722;43.212;27.932;2023-06-26T01:20:18;55027.41;;;-146.72;100.00
40994;BME280;26722;43.212;27.932;2023-06-26T01:22:50;55021.09;;;-146.72;100.00
40994;BME280;26722;43.212;27.932;2023-06-26T01:25:21;54993.63;;;-146.72;100.00
40994;BME280;26722;43.212;27.932;2023-06-26T01:27:49;54989.41;;;-146.72;100.00
40994;BME280;26722;43.212;27.932;2023-06-26T01:30:15;55014.75;;;-146.72;100.00
40994;BME280;26722;43.212;27.932;2023-06-26T01:32:41;55025.31;;;-146.72;100.00
40994;BME280;26722;43.212;27.932;2023-06-26T01:35:07;55002.09;;;-146.72;100.00
40994;BME280;26722;43.212;27.932;2023-06-26T01:37:32;55004.19;;;-146.72;100.00
40994;BME280;26722;43.212;27.932;2023-06-26T01:39:58;54993.63;;;-146.72;100.00
40994;BME280;26722;43.212;27.932;2023-06-26T01:42:23;55023.19;;;-146.72;100.00
40994;BME280;26722;43.212;27.932;2023-06-26T01:44:49;55027.41;;;-146.72;100.00
40994;BME280;26722;43.212;27.932;2023-06-26T01:47:19;55004.19;;;-146.72;100.00
40994;BME280;26722;43.212;27.932;2023-06-26T01:49:52;55012.63;;;-146.72;100.00
40994;BME280;26722;43.212;27.932;2023-06-26T01:52:29;55016.88;;;-146.72;100.00
40994;BME280;26722;43.212;27.932;2023-06-26T01:55:03;55018.97;;;-146.72;100.00
40994;BME280;26722;43.212;27.932;2023-06-26T01:57:31;54997.88;;;-146.72;100.00
40994;BME280;26722;43.212;27.932;2023-06-26T01:59:56;55021.09;;;-146.72;100.00
40994;BME280;26722;43.212;27.932;2023-06-26T02:02:24;55014.75;;;-146.72;100.00
40994;BME280;26722;43.212;27.932;2023-06-26T02:04:49;55029.53;;;-146.72;100.00
40994;BME280;26722;43.212;27.932;2023-06-26T02:07:16;55018.97;;;-146.72;100.00
40994;BME280;26722;43.212;27.932;2023-06-26T02:09:42;55010.53;;;-146.72;100.00
40994;BME280;26722;43.212;27.932;2023-06-26T02:12:08;55014.75;;;-146.72;100.00
40994;BME280;26722;43.212;27.932;2023-06-26T02:14:33;55004.19;;;-146.72;100.00
40994;BME280;26722;43.212;27.932;2023-06-26T02:16:59;55018.97;;;-146.72;100.00
40994;BME280;26722;43.212;27.932;2023-06-26T02:19:25;55014.75;;;-146.72;100.00
40994;BME280;26722;43.212;27.932;2023-06-26T02:21:52;55027.41;;;-146.72;100.00
40994;BME280;26722;43.212;27.932;2023-06-26T02:24:17;55023.19;;;-146.72;100.00
40994;BME280;26722;43.212;27.932;2023-06-26T02:26:43;55010.53;;;-146.72;100.00
40994;BME280;26722;43.212;27.932;2023-06-26T02:29:08;55031.66;;;-146.72;100.00
40994;BME280;26722;43.212;27.932;2023-06-26T02:31:33;55018.97;;;-146.72;100.00
40994;BME280;26722;43.212;27.932;2023-06-26T02:33:59;55021.09;;;-146.72;100.00
40994;BME280;26722;43.212;27.932;2023-06-26T02:36:24;55006.31;;;-146.72;100.00
40994;BME280;26722;43.212;27.932;2023-06-26T02:38:49;55018.97;;;-146.72;100.00
40994;BME280;26722;43.212;27.932;2023-06-26T02:41:14;55021.09;;;-146.72;100.00
40994;BME280;26722;43.212;27.932;2023-06-26T02:43:40;55006.31;;;-146.72;100.00
40994;BME280;26722;43.212;27.932;2023-06-26T02:46:05;55016.88;;;-146.72;100.00
40994;BME280;26722;43.212;27.932;2023-06-26T02:48:30;55021.09;;;-146.72;100.00
40994;BME280;26722;43.212;27.932;2023-06-26T02:50:56;55010.53;;;-146.72;100.00
40994;BME280;26722;43.212;27.932;2023-06-26T02:53:21;55014.75;;;-146.72;100.00
40994;BME280;26722;43.212;27.932;2023-06-26T02:55:46;55014.75;;;-146.72;100.00
40994;BME280;26722;43.212;27.932;2023-06-26T02:58:12;55010.53;;;-146.72;100.00
40994;BME280;26722;43.212;27.932;2023-06-26T03:00:38;55010.53;;;-146.72;100.00
40994;BME280;26722;43.212;27.932;2023-06-26T03:03:06;55010.53;;;-146.72;100.00
40994;BME280;26722;43.212;27.932;2023-06-26T03:05:31;54997.88;;;-146.72;100.00
40994;BME280;26722;43.212;27.932;2023-06-26T03:07:56;54993.63;;;-146.72;100.00
40994;BME280;26722;43.212;27.932;2023-06-26T03:10:22;55016.88;;;-146.72;100.00
40994;BME280;26722;43.212;27.932;2023-06-26T03:12:47;55012.63;;;-146.72;100.00
40994;BME280;26722;43.212;27.932;2023-06-26T03:15:12;55002.09;;;-146.72;100.00
40994;BME280;26722;43.212;27.932;2023-06-26T03:17:38;55002.09;;;-146.72;100.00
40994;BME280;26722;43.212;27.932;2023-06-26T03:20:03;54989.41;;;-146.72;99.52
40994;BME280;26722;43.212;27.932;2023-06-26T03:22:32;54991.53;;;-146.72;99.02
40994;BME280;26722;43.212;27.932;2023-06-26T03:24:57;54989.41;;;-146.72;98.40
40994;BME280;26722;43.212;27.932;2023-06-26T03:27:22;54989.41;;;-146.72;97.56
40994;BME280;26722;43.212;27.932;2023-06-26T03:29:47;54985.19;;;-146.72;96.72
40994;BME280;26722;43.212;27.932;2023-06-26T03:32:13;54980.97;;;-146.72;94.78
40994;BME280;26722;43.212;27.932;2023-06-26T03:34:38;54978.88;;;-146.72;91.89
40994;BME280;26722;43.212;27.932;2023-06-26T03:37:03;54974.63;;;-146.72;89.49
40994;BME280;26722;43.212;27.932;2023-06-26T03:39:29;54964.09;;;-146.72;87.07
40994;BME280;26722;43.212;27.932;2023-06-26T03:41:54;54951.41;;;-146.72;85.92
40994;BME280;26722;43.212;27.932;2023-06-26T03:44:20;54951.41;;;-146.72;84.34
40994;BME280;26722;43.212;27.932;2023-06-26T03:46:47;54955.63;;;-146.72;82.44
40994;BME280;26722;43.212;27.932;2023-06-26T03:49:12;54945.09;;;-146.72;82.51
40994;BME280;26722;43.212;27.932;2023-06-26T03:51:37;54938.75;;;-146.72;81.85
40994;BME280;26722;43.212;27.932;2023-06-26T03:54:03;54959.88;;;-146.72;79.73
40994;BME280;26722;43.212;27.932;2023-06-26T03:56:28;54938.75;;;-146.72;79.72
40994;BME280;26722;43.212;27.932;2023-06-26T03:58:53;54955.63;;;-146.72;80.46
40994;BME280;26722;43.212;27.932;2023-06-26T04:01:19;54949.31;;;-146.72;81.93
40994;BME280;26722;43.212;27.932;2023-06-26T04:03:46;54959.88;;;-146.72;83.81
40994;BME280;26722;43.212;27.932;2023-06-26T04:06:11;54968.31;;;-146.72;85.28
40994;BME280;26722;43.212;27.932;2023-06-26T04:08:37;54959.88;;;-146.72;86.12
40994;BME280;26722;43.212;27.932;2023-06-26T04:11:02;54964.09;;;-146.72;86.69
40994;BME280;26722;43.212;27.932;2023-06-26T04:13:27;54976.75;;;-146.72;85.61
40994;BME280;26722;43.212;27.932;2023-06-26T04:15:52;54964.09;;;-146.72;85.85
40994;BME280;26722;43.212;27.932;2023-06-26T04:18:18;54964.09;;;-146.72;84.82
40994;BME280;26722;43.212;27.932;2023-06-26T04:21:03;54947.19;;;-146.72;83.11
40994;BME280;26722;43.212;27.932;2023-06-26T04:23:29;54955.63;;;-146.72;83.74
40994;BME280;26722;43.212;27.932;2023-06-26T04:25:55;54972.53;;;-146.72;85.41
40994;BME280;26722;43.212;27.932;2023-06-26T04:28:23;54964.09;;;-146.72;86.36
40994;BME280;26722;43.212;27.932;2023-06-26T04:30:48;54953.53;;;-146.72;84.95
40994;BME280;26722;43.212;27.932;2023-06-26T04:33:14;54968.31;;;-146.72;84.71
40994;BME280;26722;43.212;27.932;2023-06-26T04:35:40;54955.63;;;-146.72;85.51
40994;BME280;26722;43.212;27.932;2023-06-26T04:38:05;54968.31;;;-146.72;86.31
40994;BME280;26722;43.212;27.932;2023-06-26T04:40:30;54980.97;;;-146.72;85.70
40994;BME280;26722;43.212;27.932;2023-06-26T04:42:56;54974.63;;;-146.72;85.73
40994;BME280;26722;43.212;27.932;2023-06-26T04:45:21;54951.41;;;-146.72;84.33
40994;BME280;26722;43.212;27.932;2023-06-26T04:47:46;54961.97;;;-146.72;83.62
40994;BME280;26722;43.212;27.932;2023-06-26T04:50:12;54961.97;;;-146.72;83.19
40994;BME280;26722;43.212;27.932;2023-06-26T04:52:37;54968.31;;;-146.72;84.72
40994;BME280;26722;43.212;27.932;2023-06-26T04:55:02;54972.53;;;-146.72;84.91
40994;BME280;26722;43.212;27.932;2023-06-26T04:57:28;54972.53;;;-146.72;85.51
40994;BME280;26722;43.212;27.932;2023-06-26T04:59:53;54966.19;;;-146.72;84.67
40994;BME280;26722;43.212;27.932;2023-06-26T05:02:18;54968.31;;;-146.72;84.59
40994;BME280;26722;43.212;27.932;2023-06-26T05:04:44;54970.41;;;-146.72;84.13
40994;BME280;26722;43.212;27.932;2023-06-26T05:07:09;54964.09;;;-146.72;85.08
40994;BME280;26722;43.212;27.932;2023-06-26T05:09:34;54959.88;;;-146.72;84.19
40994;BME280;26722;43.212;27.932;2023-06-26T05:12:00;54959.88;;;-146.72;83.93
40994;BME280;26722;43.212;27.932;2023-06-26T05:14:27;54951.41;;;-146.72;82.54
40994;BME280;26722;43.212;27.932;2023-06-26T05:16:52;54964.09;;;-146.72;81.67
40994;BME280;26722;43.212;27.932;2023-06-26T05:19:17;54968.31;;;-146.72;82.00
40994;BME280;26722;43.212;27.932;2023-06-26T05:21:42;54964.09;;;-146.72;80.74
40994;BME280;26722;43.212;27.932;2023-06-26T05:24:08;54968.31;;;-146.72;79.88
40994;BME280;26722;43.212;27.932;2023-06-26T05:26:33;54959.88;;;-146.72;80.09
40994;BME280;26722;43.212;27.932;2023-06-26T05:28:59;54957.75;;;-146.72;80.68
40994;BME280;26722;43.212;27.932;2023-06-26T05:31:24;54961.97;;;-146.72;79.54
40994;BME280;26722;43.212;27.932;2023-06-26T05:33:50;54959.88;;;-146.72;78.54
40994;BME280;26722;43.212;27.932;2023-06-26T05:36:17;54972.53;;;-146.72;78.77
40994;BME280;26722;43.212;27.932;2023-06-26T05:38:43;54949.31;;;-146.72;79.17
40994;BME280;26722;43.212;27.932;2023-06-26T05:41:09;54959.88;;;-146.72;79.32
40994;BME280;26722;43.212;27.932;2023-06-26T05:43:34;54978.88;;;-146.72;81.10
40994;BME280;26722;43.212;27.932;2023-06-26T05:45:59;54966.19;;;-146.72;81.66
40994;BME280;26722;43.212;27.932;2023-06-26T05:48:25;54966.19;;;-146.72;82.74
40994;BME280;26722;43.212;27.932;2023-06-26T05:50:50;54970.41;;;-146.72;83.77
40994;BME280;26722;43.212;27.932;2023-06-26T05:53:16;54945.09;;;-146.72;82.52
40994;BME280;26722;43.212;27.932;2023-06-26T05:55:41;54964.09;;;-146.72;81.22
40994;BME280;26722;43.212;27.932;2023-06-26T05:58:07;54953.53;;;-146.72;80.59
40994;BME280;26722;43.212;27.932;2023-06-26T06:00:35;54947.19;;;-146.72;80.61
40994;BME280;26722;43.212;27.932;2023-06-26T06:03:00;54964.09;;;-146.72;80.09
40994;BME280;26722;43.212;27.932;2023-06-26T06:05:25;54955.63;;;-146.72;80.08
40994;BME280;26722;43.212;27.932;2023-06-26T06:07:50;54955.63;;;-146.72;79.04
40994;BME280;26722;43.212;27.932;2023-06-26T06:10:16;54940.88;;;-146.72;79.45
40994;BME280;26722;43.212;27.932;2023-06-26T06:12:41;54959.88;;;-146.72;79.56
40994;BME280;26722;43.212;27.932;2023-06-26T06:15:07;54953.53;;;-146.72;80.61
40994;BME280;26722;43.212;27.932;2023-06-26T06:17:32;54959.88;;;-146.72;80.85
40994;BME280;26722;43.212;27.932;2023-06-26T06:19:58;54980.97;;;-146.72;80.68
40994;BME280;26722;43.212;27.932;2023-06-26T06:22:23;54964.09;;;-146.72;81.38
40994;BME280;26722;43.212;27.932;2023-06-26T06:24:48;54968.31;;;-146.72;81.57
40994;BME280;26722;43.212;27.932;2023-06-26T06:27:14;54968.31;;;-146.72;81.35
40994;BME280;26722;43.212;27.932;2023-06-26T06:29:39;54978.88;;;-146.72;81.33
40994;BME280;26722;43.212;27.932;2023-06-26T06:32:05;54964.09;;;-146.72;80.96
40994;BME280;26722;43.212;27.932;2023-06-26T06:34:30;54959.88;;;-146.72;79.74
40994;BME280;26722;43.212;27.932;2023-06-26T06:36:56;54964.09;;;-146.72;79.89
40994;BME280;26722;43.212;27.932;2023-06-26T06:39:21;54947.19;;;-146.72;78.84
40994;BME280;26722;43.212;27.932;2023-06-26T06:41:46;54957.75;;;-146.72;78.10
40994;BME280;26722;43.212;27.932;2023-06-26T06:44:11;54968.31;;;-146.72;78.50
40994;BME280;26722;43.212;27.932;2023-06-26T06:46:37;54955.63;;;-146.72;77.28
40994;BME280;26722;43.212;27.932;2023-06-26T06:49:02;54966.19;;;-146.72;77.34
40994;BME280;26722;43.212;27.932;2023-06-26T06:51:29;54964.09;;;-146.72;76.76
40994;BME280;26722;43.212;27.932;2023-06-26T06:53:54;54972.53;;;-146.72;77.58
40994;BME280;26722;43.212;27.932;2023-06-26T06:56:19;54964.09;;;-146.72;78.51
40994;BME280;26722;43.212;27.932;2023-06-26T06:58:45;54957.75;;;-146.72;77.81
40994;BME280;26722;43.212;27.932;2023-06-26T07:01:11;54961.97;;;-146.72;77.47
40994;BME280;26722;43.212;27.932;2023-06-26T07:03:36;54953.53;;;-146.72;76.29
40994;BME280;26722;43.212;27.932;2023-06-26T07:06:02;54955.63;;;-146.72;73.89
40994;BME280;26722;43.212;27.932;2023-06-26T07:08:28;54966.19;;;-146.72;74.26
40994;BME280;26722;43.212;27.932;2023-06-26T07:10:54;54964.09;;;-146.72;75.46
40994;BME280;26722;43.212;27.932;2023-06-26T07:13:19;54959.88;;;-146.72;75.71
40994;BME280;26722;43.212;27.932;2023-06-26T07:15:45;54951.41;;;-146.72;74.59
40994;BME280;26722;43.212;27.932;2023-06-26T07:18:10;54949.31;;;-146.72;74.95
40994;BME280;26722;43.212;27.932;2023-06-26T07:20:35;54947.19;;;-146.72;75.10
40994;BME280;26722;43.212;27.932;2023-06-26T07:23:01;54945.09;;;-146.72;74.56
40994;BME280;26722;43.212;27.932;2023-06-26T07:25:26;54957.75;;;-146.72;74.80
40994;BME280;26722;43.212;27.932;2023-06-26T07:27:51;54957.75;;;-146.72;75.57
40994;BME280;26722;43.212;27.932;2023-06-26T07:30:16;54951.41;;;-146.72;75.47
40994;BME280;26722;43.212;27.932;2023-06-26T07:32:44;54959.88;;;-146.72;74.06
40994;BME280;26722;43.212;27.932;2023-06-26T07:35:09;54938.75;;;-146.72;72.69
40994;BME280;26722;43.212;27.932;2023-06-26T07:37:35;54947.19;;;-146.72;73.45
40994;BME280;26722;43.212;27.932;2023-06-26T07:40:00;54938.75;;;-146.72;73.61
40994;BME280;26722;43.212;27.932;2023-06-26T07:42:26;54953.53;;;-146.72;73.13
40994;BME280;26722;43.212;27.932;2023-06-26T07:44:51;54951.41;;;-146.72;74.26
40994;BME280;26722;43.212;27.932;2023-06-26T07:47:16;54968.31;;;-146.72;74.10
40994;BME280;26722;43.212;27.932;2023-06-26T07:49:42;54947.19;;;-146.72;73.68
40994;BME280;26722;43.212;27.932;2023-06-26T07:52:07;54966.19;;;-146.72;72.18
40994;BME280;26722;43.212;27.932;2023-06-26T07:54:35;54942.97;;;-146.72;72.32
40994;BME280;26722;43.212;27.932;2023-06-26T07:57:01;54951.41;;;-146.72;72.04
40994;BME280;26722;43.212;27.932;2023-06-26T07:59:28;54936.63;;;-146.72;70.59
40994;BME280;26722;43.212;27.932;2023-06-26T08:01:54;54947.19;;;-146.72;69.46
40994;BME280;26722;43.212;27.932;2023-06-26T08:04:20;54938.75;;;-146.72;68.48
40994;BME280;26722;43.212;27.932;2023-06-26T08:06:49;54921.88;;;-146.72;67.62
40994;BME280;26722;43.212;27.932;2023-06-26T08:09:16;54934.53;;;-146.72;67.57
40994;BME280;26722;43.212;27.932;2023-06-26T08:11:42;54940.88;;;-146.72;67.80
40994;BME280;26722;43.212;27.932;2023-06-26T08:14:07;54926.09;;;-146.72;67.77
40994;BME280;26722;43.212;27.932;2023-06-26T08:16:32;54938.75;;;-146.72;67.84
40994;BME280;26722;43.212;27.932;2023-06-26T08:18:58;54942.97;;;-146.72;67.26
40994;BME280;26722;43.212;27.932;2023-06-26T08:21:23;54934.53;;;-146.72;66.72
40994;BME280;26722;43.212;27.932;2023-06-26T08:23:48;54930.31;;;-146.72;67.71
40994;BME280;26722;43.212;27.932;2023-06-26T08:26:13;54930.31;;;-146.72;67.29
40994;BME280;26722;43.212;27.932;2023-06-26T08:28:39;54926.09;;;-146.72;67.41
40994;BME280;26722;43.212;27.932;2023-06-26T08:31:04;54926.09;;;-146.72;67.28
40994;BME280;26722;43.212;27.932;2023-06-26T08:33:29;54917.63;;;-146.72;65.37
40994;BME280;26722;43.212;27.932;2023-06-26T08:35:55;54938.75;;;-146.72;66.40
40994;BME280;26722;43.212;27.932;2023-06-26T08:38:20;54911.31;;;-146.72;64.55
40994;BME280;26722;43.212;27.932;2023-06-26T08:40:46;54921.88;;;-146.72;63.49
40994;BME280;26722;43.212;27.932;2023-06-26T08:43:11;54923.97;;;-146.72;62.96
40994;BME280;26722;43.212;27.932;2023-06-26T08:45:37;54936.63;;;-146.72;64.68
40994;BME280;26722;43.212;27.932;2023-06-26T08:48:02;54932.41;;;-146.72;64.17
40994;BME280;26722;43.212;27.932;2023-06-26T08:50:30;54900.75;;;-146.72;63.06
40994;BME280;26722;43.212;27.932;2023-06-26T08:52:56;54917.63;;;-146.72;61.17
40994;BME280;26722;43.212;27.932;2023-06-26T08:55:25;54896.53;;;-146.72;58.91
40994;BME280;26722;43.212;27.932;2023-06-26T08:57:52;54902.84;;;-146.72;59.56
40994;BME280;26722;43.212;27.932;2023-06-26T09:00:18;54907.09;;;-146.72;60.40
40994;BME280;26722;43.212;27.932;2023-06-26T09:02:44;54926.09;;;-146.72;60.71
40994;BME280;26722;43.212;27.932;2023-06-26T09:05:10;54921.88;;;-146.72;61.03
40994;BME280;26722;43.212;27.932;2023-06-26T09:07:36;54896.53;;;-146.72;60.93
40994;BME280;26722;43.212;27.932;2023-06-26T09:10:01;54919.75;;;-146.72;60.48
40994;BME280;26722;43.212;27.932;2023-06-26T09:12:27;54915.53;;;-146.72;57.82
40994;BME280;26722;43.212;27.932;2023-06-26T09:14:53;54917.63;;;-146.72;58.71
40994;BME280;26722;43.212;27.932;2023-06-26T09:17:23;54909.19;;;-146.72;57.76
40994;BME280;26722;43.212;27.932;2023-06-26T09:19:49;54900.75;;;-146.72;56.31
40994;BME280;26722;43.212;27.932;2023-06-26T09:22:14;54900.75;;;-146.72;56.92
40994;BME280;26722;43.212;27.932;2023-06-26T09:24:40;54904.97;;;-146.72;57.47
40994;BME280;26722;43.212;27.932;2023-06-26T09:27:06;54909.19;;;-146.72;57.92
40994;BME280;26722;43.212;27.932;2023-06-26T09:29:31;54900.75;;;-146.72;58.85
40994;BME280;26722;43.212;27.932;2023-06-26T09:31:58;54913.41;;;-146.72;57.83
40994;BME280;26722;43.212;27.932;2023-06-26T09:34:29;54919.75;;;-146.72;58.06
40994;BME280;26722;43.212;27.932;2023-06-26T09:36:55;54900.75;;;-146.72;57.50
40994;BME280;26722;43.212;27.932;2023-06-26T09:39:20;54892.31;;;-146.72;56.38
40994;BME280;26722;43.212;27.932;2023-06-26T09:41:45;54890.19;;;-146.72;55.50
40994;BME280;26722;43.212;27.932;2023-06-26T09:44:14;54888.09;;;-146.72;54.65
40994;BME280;26722;43.212;27.932;2023-06-26T09:46:40;54892.31;;;-146.72;55.53
40994;BME280;26722;43.212;27.932;2023-06-26T09:51:31;54904.97;;;-146.72;56.33
40994;BME280;26722;43.212;27.932;2023-06-26T09:53:57;54896.53;;;-146.72;55.89
40994;BME280;26722;43.212;27.932;2023-06-26T09:56:23;54896.53;;;-146.72;56.29
40994;BME280;26722;43.212;27.932;2023-06-26T09:58:48;54888.09;;;-146.72;56.10
40994;BME280;26722;43.212;27.932;2023-06-26T10:01:14;54917.63;;;-146.72;56.71
40994;BME280;26722;43.212;27.932;2023-06-26T10:03:39;54883.84;;;-146.72;55.26
40994;BME280;26722;43.212;27.932;2023-06-26T10:06:04;54894.41;;;-146.72;52.93
40994;BME280;26722;43.212;27.932;2023-06-26T10:08:30;54892.31;;;-146.72;52.66
40994;BME280;26722;43.212;27.932;2023-06-26T10:10:57;54896.53;;;-146.72;53.06
40994;BME280;26722;43.212;27.932;2023-06-26T10:13:25;54898.63;;;-146.72;53.45
40994;BME280;26722;43.212;27.932;2023-06-26T10:15:52;54896.53;;;-146.72;52.49
40994;BME280;26722;43.212;27.932;2023-06-26T10:18:18;54881.75;;;-146.72;52.73
40994;BME280;26722;43.212;27.932;2023-06-26T10:20:47;54892.31;;;-146.72;53.02
40994;BME280;26722;43.212;27.932;2023-06-26T10:23:13;54896.53;;;-146.72;53.31
40994;BME280;26722;43.212;27.932;2023-06-26T10:25:40;54883.84;;;-146.72;53.03
40994;BME280;26722;43.212;27.932;2023-06-26T10:28:07;54900.75;;;-146.72;53.74
40994;BME280;26722;43.212;27.932;2023-06-26T10:30:35;54890.19;;;-146.72;52.68
40994;BME280;26722;43.212;27.932;2023-06-26T10:33:01;54883.84;;;-146.72;52.09
40994;BME280;26722;43.212;27.932;2023-06-26T10:35:28;54890.19;;;-146.72;52.32
40994;BME280;26722;43.212;27.932;2023-06-26T10:37:59;54904.97;;;-146.72;53.15
40994;BME280;26722;43.212;27.932;2023-06-26T10:40:25;54907.09;;;-146.72;52.82
40994;BME280;26722;43.212;27.932;2023-06-26T10:42:51;54888.09;;;-146.72;51.46
40994;BME280;26722;43.212;27.932;2023-06-26T10:45:19;54888.09;;;-146.72;49.36
40994;BME280;26722;43.212;27.932;2023-06-26T10:47:45;54883.84;;;-146.72;49.99
40994;BME280;26722;43.212;27.932;2023-06-26T10:52:45;54888.09;;;-146.72;50.43
40994;BME280;26722;43.212;27.932;2023-06-26T10:55:11;54883.84;;;-146.72;47.97
40994;BME280;26722;43.212;27.932;2023-06-26T10:57:38;54879.63;;;-146.72;48.33
40994;BME280;26722;43.212;27.932;2023-06-26T11:00:16;54898.63;;;-146.72;48.50
40994;BME280;26722;43.212;27.932;2023-06-26T11:02:51;54894.41;;;-146.72;47.64
40994;BME280;26722;43.212;27.932;2023-06-26T11:05:26;54890.19;;;-146.72;47.49
40994;BME280;26722;43.212;27.932;2023-06-26T11:08:05;54892.31;;;-146.72;47.89
40994;BME280;26722;43.212;27.932;2023-06-26T11:10:47;54900.75;;;-146.72;49.08
40994;BME280;26722;43.212;27.932;2023-06-26T11:13:13;54892.31;;;-146.72;48.88
40994;BME280;26722;43.212;27.932;2023-06-26T11:15:38;54883.84;;;-146.72;47.57
40994;BME280;26722;43.212;27.932;2023-06-26T11:18:03;54883.84;;;-146.72;46.56
40994;BME280;26722;43.212;27.932;2023-06-26T11:20:29;54866.97;;;-146.72;45.28
40994;BME280;26722;43.212;27.932;2023-06-26T11:22:54;54866.97;;;-146.72;45.32
40994;BME280;26722;43.212;27.932;2023-06-26T11:25:20;54875.41;;;-146.72;45.23
40994;BME280;26722;43.212;27.932;2023-06-26T11:27:45;54892.31;;;-146.72;45.67
40994;BME280;26722;43.212;27.932;2023-06-26T11:30:21;54888.09;;;-146.72;47.07
40994;BME280;26722;43.212;27.932;2023-06-26T11:32:47;54869.09;;;-146.72;47.55
40994;BME280;26722;43.212;27.932;2023-06-26T11:35:12;54875.41;;;-146.72;47.47
40994;BME280;26722;43.212;27.932;2023-06-26T11:37:38;54860.63;;;-146.72;46.85
40994;BME280;26722;43.212;27.932;2023-06-26T11:40:18;54879.63;;;-146.72;44.98
40994;BME280;26722;43.212;27.932;2023-06-26T11:42:44;54871.19;;;-146.72;45.52
40994;BME280;26722;43.212;27.932;2023-06-26T11:45:09;54875.41;;;-146.72;45.35
40994;BME280;26722;43.212;27.932;2023-06-26T11:47:34;54875.41;;;-146.72;43.62
40994;BME280;26722;43.212;27.932;2023-06-26T11:50:01;54888.09;;;-146.72;50.21
40994;BME280;26722;43.212;27.932;2023-06-26T11:52:29;54869.09;;;-146.72;59.05
40994;BME280;26722;43.212;27.932;2023-06-26T11:54:54;54866.97;;;-146.72;63.24
40994;BME280;26722;43.212;27.932;2023-06-26T11:57:19;54866.97;;;-146.72;64.42
40994;BME280;26722;43.212;27.932;2023-06-26T11:59:45;54875.41;;;-146.72;65.96
40994;BME280;26722;43.212;27.932;2023-06-26T12:02:12;54881.75;;;-146.72;67.25
40994;BME280;26722;43.212;27.932;2023-06-26T12:04:38;54879.63;;;-146.72;67.42
40994;BME280;26722;43.212;27.932;2023-06-26T12:07:05;54881.75;;;-146.72;68.16
40994;BME280;26722;43.212;27.932;2023-06-26T12:09:33;54892.31;;;-146.72;69.20
40994;BME280;26722;43.212;27.932;2023-06-26T12:11:58;54896.53;;;-146.72;70.55
40994;BME280;26722;43.212;27.932;2023-06-26T12:14:24;54898.63;;;-146.72;70.81
40994;BME280;26722;43.212;27.932;2023-06-26T12:16:51;54904.97;;;-146.72;70.24
40994;BME280;26722;43.212;27.932;2023-06-26T12:19:17;54896.53;;;-146.72;70.73
40994;BME280;26722;43.212;27.932;2023-06-26T12:21:46;54888.09;;;-146.72;68.86
40994;BME280;26722;43.212;27.932;2023-06-26T12:24:15;54885.97;;;-146.72;68.34
40994;BME280;26722;43.212;27.932;2023-06-26T12:26:42;54894.41;;;-146.72;68.58